Aviation Digital Data Service (ADDS)

Output produced by METARs form (1637 UTC 25 August 2016)
found at http://www.aviationweather.gov/adds/metars/
 
METAR text: EPWR 251630Z 13007KT CAVOK 25/13 Q1022
Conditions at: EPWR (WROCLAW/STRACHOW, PL) observed 1630 UTC 25 August 2016
Temperature: 25.0°C (77°F)
Dewpoint: 13.0°C (55°F) [RH = 47%]
Pressure (altimeter): 30.18 inches Hg (1022.0 mb)
Winds: from the SE (130 degrees) at 8 MPH (7 knots; 3.6 m/s)
Visibility: 6 or more miles (10+ km)
Ceiling: ceiling and visibility are OK
Clouds: unknown
Weather: no significant weather observed at this time

Forecast for: EPWR (WROCLAW/STRACHOW, PL)
Text: TAF EPWR 251130Z 2512/2612 12010KT CAVOK
Forecast period: 1200 UTC 25 August 2016 to 1200 UTC 26 August 2016
Forecast type: FROM: standard forecast or significant change
Winds: from the ESE (120 degrees) at 12 MPH (10 knots; 5.2 m/s)
Visibility: 6 or more miles (10+ km)
Clouds: not forecast
Weather: NSW  (no significant weather)
Text: PROB30 2602/2605 4000 BR
Forecast period: 0200 to 0500 UTC 26 August 2016
Forecast type: PROBABLE: 30 percent likelihood of the following during this time
Visibility: 2.49 miles (4.01 km)
Weather: BR  (mist)